sensor_id;sensor_type;location;lat;lon;timestamp;P1;durP1;ratioP1;P2;durP2;ratioP2
76550;SDS011;65393;53.160;18.170;2022-11-20T16:08:04;61.20;;;20.70;;
76550;SDS011;65393;53.160;18.170;2022-11-20T16:10:30;53.30;;;19.30;;
76550;SDS011;65393;53.160;18.170;2022-11-20T16:12:56;60.80;;;21.60;;
76550;SDS011;65393;53.160;18.170;2022-11-20T16:15:41;66.00;;;22.90;;
76550;SDS011;65393;53.160;18.170;2022-11-20T16:18:15;65.30;;;23.10;;
76550;SDS011;65393;53.160;18.170;2022-11-20T16:20:43;62.30;;;21.00;;
76550;SDS011;65393;53.160;18.170;2022-11-20T16:23:11;66.70;;;22.70;;
76550;SDS011;65393;53.160;18.170;2022-11-20T16:25:37;58.30;;;20.20;;
76550;SDS011;65393;53.160;18.170;2022-11-20T16:28:03;55.70;;;19.30;;
76550;SDS011;65393;53.160;18.170;2022-11-20T16:30:30;58.20;;;21.70;;
76550;SDS011;65393;53.160;18.170;2022-11-20T16:32:59;59.50;;;21.30;;
76550;SDS011;65393;53.160;18.170;2022-11-20T16:35:29;70.90;;;21.50;;
76550;SDS011;65393;53.160;18.170;2022-11-20T16:37:57;60.60;;;22.50;;
76550;SDS011;65393;53.160;18.170;2022-11-20T16:40:24;61.80;;;22.00;;
76550;SDS011;65393;53.160;18.170;2022-11-20T16:42:50;57.70;;;18.90;;
76550;SDS011;65393;53.160;18.170;2022-11-20T16:45:17;63.10;;;23.10;;
76550;SDS011;65393;53.160;18.170;2022-11-20T16:47:43;61.70;;;22.90;;
76550;SDS011;65393;53.160;18.170;2022-11-20T16:50:09;86.00;;;26.20;;
76550;SDS011;65393;53.160;18.170;2022-11-20T16:52:36;81.30;;;26.70;;
76550;SDS011;65393;53.160;18.170;2022-11-20T16:55:02;76.40;;;27.10;;
76550;SDS011;65393;53.160;18.170;2022-11-20T16:57:29;67.80;;;23.50;;
76550;SDS011;65393;53.160;18.170;2022-11-20T16:59:58;67.70;;;22.30;;
76550;SDS011;65393;53.160;18.170;2022-11-20T17:02:25;59.70;;;21.80;;
76550;SDS011;65393;53.160;18.170;2022-11-20T17:04:51;63.90;;;20.10;;
76550;SDS011;65393;53.160;18.170;2022-11-20T17:07:17;54.40;;;18.40;;
76550;SDS011;65393;53.160;18.170;2022-11-20T17:09:44;54.30;;;19.60;;
76550;SDS011;65393;53.160;18.170;2022-11-20T17:12:10;50.70;;;19.10;;
76550;SDS011;65393;53.160;18.170;2022-11-20T17:14:36;57.10;;;19.90;;
76550;SDS011;65393;53.160;18.170;2022-11-20T17:17:02;54.10;;;19.80;;
76550;SDS011;65393;53.160;18.170;2022-11-20T17:19:28;55.20;;;19.30;;
76550;SDS011;65393;53.160;18.170;2022-11-20T17:21:54;58.80;;;21.30;;
76550;SDS011;65393;53.160;18.170;2022-11-20T17:24:20;55.30;;;19.10;;
76550;SDS011;65393;53.160;18.170;2022-11-20T17:26:47;61.50;;;22.30;;
76550;SDS011;65393;53.160;18.170;2022-11-20T17:29:14;61.10;;;19.80;;
76550;SDS011;65393;53.160;18.170;2022-11-20T17:31:42;35.10;;;14.60;;
76550;SDS011;65393;53.160;18.170;2022-11-20T17:34:10;39.70;;;15.80;;
76550;SDS011;65393;53.160;18.170;2022-11-20T17:36:38;53.50;;;19.00;;
76550;SDS011;65393;53.160;18.170;2022-11-20T17:39:06;36.40;;;14.60;;
76550;SDS011;65393;53.160;18.170;2022-11-20T17:41:32;49.00;;;16.30;;
76550;SDS011;65393;53.160;18.170;2022-11-20T17:43:59;34.90;;;15.40;;
76550;SDS011;65393;53.160;18.170;2022-11-20T17:46:28;41.70;;;15.10;;
76550;SDS011;65393;53.160;18.170;2022-11-20T17:48:57;49.30;;;16.10;;
76550;SDS011;65393;53.160;18.170;2022-11-20T17:51:25;40.40;;;15.20;;
76550;SDS011;65393;53.160;18.170;2022-11-20T17:53:53;38.30;;;14.80;;
76550;SDS011;65393;53.160;18.170;2022-11-20T17:56:22;41.80;;;16.80;;
76550;SDS011;65393;53.160;18.170;2022-11-20T17:59:07;39.00;;;16.00;;
76550;SDS011;65393;53.160;18.170;2022-11-20T18:01:38;41.40;;;16.60;;
76550;SDS011;65393;53.160;18.170;2022-11-20T18:04:07;50.30;;;19.50;;
76550;SDS011;65393;53.160;18.170;2022-11-20T18:06:33;76.80;;;27.70;;
76550;SDS011;65393;53.160;18.170;2022-11-20T18:09:00;70.30;;;21.90;;
76550;SDS011;65393;53.160;18.170;2022-11-20T18:11:28;65.30;;;23.90;;
76550;SDS011;65393;53.160;18.170;2022-11-20T18:14:00;56.70;;;19.60;;
76550;SDS011;65393;53.160;18.170;2022-11-20T18:16:50;58.20;;;21.60;;
76550;SDS011;65393;53.160;18.170;2022-11-20T18:19:19;50.90;;;17.30;;
76550;SDS011;65393;53.160;18.170;2022-11-20T18:21:49;81.70;;;27.50;;
76550;SDS011;65393;53.160;18.170;2022-11-20T18:24:15;77.00;;;28.30;;
76550;SDS011;65393;53.160;18.170;2022-11-20T18:26:42;58.80;;;21.90;;
76550;SDS011;65393;53.160;18.170;2022-11-20T18:29:08;56.20;;;21.40;;
76550;SDS011;65393;53.160;18.170;2022-11-20T18:31:34;66.50;;;23.80;;
76550;SDS011;65393;53.160;18.170;2022-11-20T18:34:01;51.70;;;19.00;;
76550;SDS011;65393;53.160;18.170;2022-11-20T18:36:28;51.40;;;19.70;;
76550;SDS011;65393;53.160;18.170;2022-11-20T18:38:58;54.70;;;22.20;;
76550;SDS011;65393;53.160;18.170;2022-11-20T18:41:29;46.00;;;19.20;;
76550;SDS011;65393;53.160;18.170;2022-11-20T18:44:15;56.60;;;23.40;;
76550;SDS011;65393;53.160;18.170;2022-11-20T18:47:06;49.10;;;20.00;;
76550;SDS011;65393;53.160;18.170;2022-11-20T18:49:35;43.70;;;16.60;;
76550;SDS011;65393;53.160;18.170;2022-11-20T18:52:01;43.00;;;18.10;;
76550;SDS011;65393;53.160;18.170;2022-11-20T18:54:28;46.30;;;21.10;;
76550;SDS011;65393;53.160;18.170;2022-11-20T18:56:56;45.90;;;17.10;;
76550;SDS011;65393;53.160;18.170;2022-11-20T18:59:22;45.30;;;18.50;;
76550;SDS011;65393;53.160;18.170;2022-11-20T19:01:48;35.40;;;17.00;;
76550;SDS011;65393;53.160;18.170;2022-11-20T19:04:15;31.80;;;14.20;;
76550;SDS011;65393;53.160;18.170;2022-11-20T19:06:44;31.80;;;13.50;;
76550;SDS011;65393;53.160;18.170;2022-11-20T19:09:14;45.00;;;20.10;;
76550;SDS011;65393;53.160;18.170;2022-11-20T19:11:41;42.70;;;18.30;;
76550;SDS011;65393;53.160;18.170;2022-11-20T19:14:07;55.00;;;22.30;;
76550;SDS011;65393;53.160;18.170;2022-11-20T19:16:33;51.70;;;19.60;;
76550;SDS011;65393;53.160;18.170;2022-11-20T19:19:00;42.40;;;18.20;;
76550;SDS011;65393;53.160;18.170;2022-11-20T19:21:27;45.80;;;19.50;;
76550;SDS011;65393;53.160;18.170;2022-11-20T19:23:54;45.80;;;19.10;;
76550;SDS011;65393;53.160;18.170;2022-11-20T19:26:21;42.00;;;17.50;;
76550;SDS011;65393;53.160;18.170;2022-11-20T19:28:48;41.70;;;17.60;;
76550;SDS011;65393;53.160;18.170;2022-11-20T19:31:16;47.60;;;20.60;;
76550;SDS011;65393;53.160;18.170;2022-11-20T19:33:44;46.80;;;19.80;;
76550;SDS011;65393;53.160;18.170;2022-11-20T19:36:14;37.40;;;17.40;;
76550;SDS011;65393;53.160;18.170;2022-11-20T19:41:12;46.50;;;19.40;;
76550;SDS011;65393;53.160;18.170;2022-11-20T19:43:39;46.50;;;20.90;;
76550;SDS011;65393;53.160;18.170;2022-11-20T19:46:05;56.60;;;23.40;;
76550;SDS011;65393;53.160;18.170;2022-11-20T19:48:32;63.90;;;26.30;;
76550;SDS011;65393;53.160;18.170;2022-11-20T19:51:13;51.30;;;20.90;;
76550;SDS011;65393;53.160;18.170;2022-11-20T19:53:41;53.10;;;20.40;;
76550;SDS011;65393;53.160;18.170;2022-11-20T19:56:07;57.70;;;21.70;;
76550;SDS011;65393;53.160;18.170;2022-11-20T19:58:33;56.10;;;22.10;;
76550;SDS011;65393;53.160;18.170;2022-11-20T20:01:07;58.70;;;22.20;;
76550;SDS011;65393;53.160;18.170;2022-11-20T20:03:35;43.60;;;19.00;;
76550;SDS011;65393;53.160;18.170;2022-11-20T20:06:03;52.30;;;20.50;;
76550;SDS011;65393;53.160;18.170;2022-11-20T20:08:32;43.50;;;18.30;;
76550;SDS011;65393;53.160;18.170;2022-11-20T20:10:58;39.60;;;15.10;;
76550;SDS011;65393;53.160;18.170;2022-11-20T20:13:24;40.80;;;16.40;;
76550;SDS011;65393;53.160;18.170;2022-11-20T20:15:51;41.00;;;17.60;;
76550;SDS011;65393;53.160;18.170;2022-11-20T20:18:18;44.60;;;17.80;;
76550;SDS011;65393;53.160;18.170;2022-11-20T20:20:43;44.20;;;17.10;;
76550;SDS011;65393;53.160;18.170;2022-11-20T20:23:10;42.40;;;17.10;;
76550;SDS011;65393;53.160;18.170;2022-11-20T20:25:36;37.50;;;16.40;;
76550;SDS011;65393;53.160;18.170;2022-11-20T20:28:04;50.60;;;18.70;;
76550;SDS011;65393;53.160;18.170;2022-11-20T20:30:30;52.00;;;20.90;;
76550;SDS011;65393;53.160;18.170;2022-11-20T20:32:56;41.50;;;15.90;;
76550;SDS011;65393;53.160;18.170;2022-11-20T20:35:22;44.90;;;18.80;;
76550;SDS011;65393;53.160;18.170;2022-11-20T20:37:48;42.80;;;16.10;;
76550;SDS011;65393;53.160;18.170;2022-11-20T20:40:14;42.70;;;16.80;;
76550;SDS011;65393;53.160;18.170;2022-11-20T20:42:40;37.20;;;17.60;;
76550;SDS011;65393;53.160;18.170;2022-11-20T20:45:06;43.40;;;18.30;;
76550;SDS011;65393;53.160;18.170;2022-11-20T20:47:34;50.80;;;19.60;;
76550;SDS011;65393;53.160;18.170;2022-11-20T20:50:05;45.80;;;17.50;;
76550;SDS011;65393;53.160;18.170;2022-11-20T20:52:33;45.20;;;18.00;;
76550;SDS011;65393;53.160;18.170;2022-11-20T20:55:00;37.30;;;15.40;;
76550;SDS011;65393;53.160;18.170;2022-11-20T20:57:26;40.50;;;15.70;;
76550;SDS011;65393;53.160;18.170;2022-11-20T20:59:53;38.70;;;16.30;;
76550;SDS011;65393;53.160;18.170;2022-11-20T21:02:20;35.70;;;14.80;;
76550;SDS011;65393;53.160;18.170;2022-11-20T21:04:48;44.80;;;16.20;;
76550;SDS011;65393;53.160;18.170;2022-11-20T21:07:15;44.40;;;17.50;;
76550;SDS011;65393;53.160;18.170;2022-11-20T21:09:41;40.20;;;15.70;;
76550;SDS011;65393;53.160;18.170;2022-11-20T21:12:07;40.80;;;17.40;;
76550;SDS011;65393;53.160;18.170;2022-11-20T21:14:33;48.60;;;18.70;;
76550;SDS011;65393;53.160;18.170;2022-11-20T21:16:59;31.60;;;13.60;;
76550;SDS011;65393;53.160;18.170;2022-11-20T21:19:25;43.10;;;18.80;;
76550;SDS011;65393;53.160;18.170;2022-11-20T21:21:51;47.20;;;20.40;;
76550;SDS011;65393;53.160;18.170;2022-11-20T21:26:53;36.90;;;15.60;;
76550;SDS011;65393;53.160;18.170;2022-11-20T21:29:20;36.90;;;14.70;;
76550;SDS011;65393;53.160;18.170;2022-11-20T21:31:48;40.20;;;16.70;;
76550;SDS011;65393;53.160;18.170;2022-11-20T21:34:15;40.10;;;17.20;;
76550;SDS011;65393;53.160;18.170;2022-11-20T21:36:42;40.70;;;17.70;;
76550;SDS011;65393;53.160;18.170;2022-11-20T21:39:09;43.30;;;18.50;;
76550;SDS011;65393;53.160;18.170;2022-11-20T21:41:36;54.80;;;22.00;;
76550;SDS011;65393;53.160;18.170;2022-11-20T21:44:02;57.70;;;20.90;;
76550;SDS011;65393;53.160;18.170;2022-11-20T21:46:30;50.00;;;18.40;;
76550;SDS011;65393;53.160;18.170;2022-11-20T21:48:57;62.30;;;22.60;;
76550;SDS011;65393;53.160;18.170;2022-11-20T21:51:24;47.00;;;19.70;;
76550;SDS011;65393;53.160;18.170;2022-11-20T21:53:52;51.10;;;18.50;;
76550;SDS011;65393;53.160;18.170;2022-11-20T21:56:21;51.50;;;17.60;;
76550;SDS011;65393;53.160;18.170;2022-11-20T21:58:48;52.60;;;20.30;;
76550;SDS011;65393;53.160;18.170;2022-11-20T22:01:20;44.60;;;18.50;;
76550;SDS011;65393;53.160;18.170;2022-11-20T22:03:54;44.40;;;17.90;;
76550;SDS011;65393;53.160;18.170;2022-11-20T22:06:27;45.80;;;18.90;;
76550;SDS011;65393;53.160;18.170;2022-11-20T22:08:57;37.30;;;15.30;;
76550;SDS011;65393;53.160;18.170;2022-11-20T22:11:23;45.90;;;16.30;;
76550;SDS011;65393;53.160;18.170;2022-11-20T22:13:49;39.90;;;16.20;;
76550;SDS011;65393;53.160;18.170;2022-11-20T22:16:33;45.60;;;18.00;;
76550;SDS011;65393;53.160;18.170;2022-11-20T22:19:01;42.70;;;18.40;;
76550;SDS011;65393;53.160;18.170;2022-11-20T22:21:28;43.60;;;17.40;;
76550;SDS011;65393;53.160;18.170;2022-11-20T22:23:55;50.30;;;18.50;;
76550;SDS011;65393;53.160;18.170;2022-11-20T22:26:25;38.10;;;16.60;;
76550;SDS011;65393;53.160;18.170;2022-11-20T22:28:54;53.30;;;19.50;;
76550;SDS011;65393;53.160;18.170;2022-11-20T22:31:22;48.70;;;20.10;;
76550;SDS011;65393;53.160;18.170;2022-11-20T22:33:49;52.70;;;18.70;;
76550;SDS011;65393;53.160;18.170;2022-11-20T22:36:17;54.80;;;20.70;;
76550;SDS011;65393;53.160;18.170;2022-11-20T22:38:48;47.80;;;19.50;;
76550;SDS011;65393;53.160;18.170;2022-11-20T22:43:52;52.80;;;19.90;;
76550;SDS011;65393;53.160;18.170;2022-11-20T22:46:20;57.40;;;21.90;;
76550;SDS011;65393;53.160;18.170;2022-11-20T22:48:51;54.30;;;21.40;;
76550;SDS011;65393;53.160;18.170;2022-11-20T22:51:18;45.80;;;19.60;;
76550;SDS011;65393;53.160;18.170;2022-11-20T22:53:46;47.10;;;19.20;;
76550;SDS011;65393;53.160;18.170;2022-11-20T22:56:14;48.80;;;19.30;;
76550;SDS011;65393;53.160;18.170;2022-11-20T22:58:42;45.80;;;18.90;;
76550;SDS011;65393;53.160;18.170;2022-11-20T23:03:40;49.50;;;19.80;;
76550;SDS011;65393;53.160;18.170;2022-11-20T23:06:08;52.90;;;19.80;;
76550;SDS011;65393;53.160;18.170;2022-11-20T23:08:35;55.60;;;20.00;;
76550;SDS011;65393;53.160;18.170;2022-11-20T23:11:03;53.40;;;21.60;;
76550;SDS011;65393;53.160;18.170;2022-11-20T23:13:31;66.30;;;21.00;;
76550;SDS011;65393;53.160;18.170;2022-11-20T23:16:08;52.20;;;20.20;;
76550;SDS011;65393;53.160;18.170;2022-11-20T23:18:34;52.80;;;19.70;;
76550;SDS011;65393;53.160;18.170;2022-11-20T23:21:05;51.50;;;19.70;;
76550;SDS011;65393;53.160;18.170;2022-11-20T23:23:31;54.00;;;18.90;;
76550;SDS011;65393;53.160;18.170;2022-11-20T23:26:05;51.80;;;18.40;;
76550;SDS011;65393;53.160;18.170;2022-11-20T23:28:33;48.70;;;19.70;;
76550;SDS011;65393;53.160;18.170;2022-11-20T23:30:59;49.50;;;18.40;;
76550;SDS011;65393;53.160;18.170;2022-11-20T23:33:25;45.20;;;18.00;;
76550;SDS011;65393;53.160;18.170;2022-11-20T23:35:52;48.70;;;19.50;;
76550;SDS011;65393;53.160;18.170;2022-11-20T23:38:18;45.40;;;17.90;;
76550;SDS011;65393;53.160;18.170;2022-11-20T23:40:48;48.70;;;19.70;;
76550;SDS011;65393;53.160;18.170;2022-11-20T23:43:15;46.20;;;18.20;;
76550;SDS011;65393;53.160;18.170;2022-11-20T23:45:43;51.30;;;20.30;;
76550;SDS011;65393;53.160;18.170;2022-11-20T23:48:11;47.90;;;18.80;;
76550;SDS011;65393;53.160;18.170;2022-11-20T23:50:37;52.90;;;20.90;;
76550;SDS011;65393;53.160;18.170;2022-11-20T23:53:03;56.70;;;22.40;;
76550;SDS011;65393;53.160;18.170;2022-11-20T23:55:30;50.40;;;18.90;;
76550;SDS011;65393;53.160;18.170;2022-11-20T23:57:56;55.40;;;20.20;;
